Time;durP1;ratioP1;P1;durP2;ratioP2;P2;SDS_P1;SDS_P2;PMS_P1;PMS_P2;Temp;Humidity;BMP_temperature;BMP_pressure;BME280_temperature;BME280_humidity;BME280_pressure;Samples;Min_cycle;Max_cycle;Signal;HPM_P1;HPM_P2
2022/01/20 00:02:07;;;;;;;57.80;25.70;;;;;;;-1.44;80.72;98181.66;106084;1280;24967;-85
2022/01/20 00:07:44;;;;;;;59.40;28.40;;;;;;;-1.38;80.76;98186.89;106110;1277;24380;-86
2022/01/20 00:26:26;;;;;;;61.40;23.30;;;;;;;-1.26;80.41;98178.84;106389;1277;22574;-86
2022/01/20 00:28:56;;;;;;;64.30;23.50;;;;;;;-1.23;80.29;98176.22;106390;1276;137907;-85
2022/01/20 00:39:32;;;;;;;38.70;18.60;;;;;;;-1.14;80.62;98173.89;106288;1277;22715;-84
2022/01/20 00:41:58;;;;;;;40.10;18.30;;;;;;;-1.07;80.75;98174.88;106160;1278;139165;-84
2022/01/20 00:44:26;;;;;;;38.50;16.70;;;;;;;-0.98;81.15;98176.92;106179;1277;25610;-84
2022/01/20 00:46:52;;;;;;;37.80;16.70;;;;;;;-0.87;81.23;98168.89;106094;1279;138157;-85
2022/01/20 00:49:19;;;;;;;32.30;14.80;;;;;;;-0.78;81.15;98164.43;106063;1279;23286;-86
2022/01/20 00:51:46;;;;;;;35.00;15.40;;;;;;;-0.69;81.16;98159.08;106223;1277;23973;-85
2022/01/20 00:54:12;;;;;;;35.40;17.50;;;;;;;-0.60;81.18;98157.38;106401;1277;138199;-85
2022/01/20 00:56:39;;;;;;;26.40;13.10;;;;;;;-0.51;81.07;98160.08;106228;1277;22545;-84
2022/01/20 00:59:08;;;;;;;28.20;14.60;;;;;;;-0.41;81.04;98155.45;106188;1280;138241;-83
2022/01/20 01:01:34;;;;;;;;;;;;;;;-0.30;80.78;98156.15;106241;1280;22533;-85
2022/01/20 01:04:02;;;;;;;25.50;11.30;;;;;;;-0.20;81.06;98150.63;106438;1277;23956;-84
2022/01/20 01:06:44;;;;;;;21.60;10.00;;;;;;;-0.14;80.99;98139.35;106003;1277;137936;-84
2022/01/20 01:09:11;;;;;;;18.60;9.80;;;;;;;0.01;80.90;98139.93;106144;1277;22579;-83
2022/01/20 01:11:41;;;;;;;14.40;7.90;;;;;;;0.12;80.83;98139.24;106379;1277;138177;-86
2022/01/20 01:14:09;;;;;;;13.70;7.60;;;;;;;0.24;80.72;98127.73;106175;1277;23178;-84
2022/01/20 01:24:45;;;;;;;12.70;7.10;;;;;;;0.56;79.85;98106.77;106166;1277;137452;-83
2022/01/20 01:27:13;;;;;;;12.00;7.20;;;;;;;0.62;79.89;98107.48;106323;1277;22560;-83
2022/01/20 01:32:10;;;;;;;11.70;6.50;;;;;;;0.76;79.35;98096.96;106253;1277;22584;-83
2022/01/20 01:34:39;;;;;;;10.50;5.70;;;;;;;0.83;79.15;98087.81;106280;1279;25257;-83
2022/01/20 01:37:14;;;;;;;11.80;6.90;;;;;;;0.87;79.02;98083.86;106126;1279;137899;-82
2022/01/20 01:39:41;;;;;;;12.70;7.20;;;;;;;0.89;78.99;98080.91;106343;1277;22602;-86
2022/01/20 01:42:09;;;;;;;12.10;7.70;;;;;;;0.92;79.16;98074.49;105975;1277;138163;-82
2022/01/20 01:44:38;;;;;;;11.80;6.90;;;;;;;0.95;79.19;98066.40;106004;1280;25437;-81
2022/01/20 01:47:04;;;;;;;10.90;6.70;;;;;;;0.98;79.12;98056.77;106031;1277;137689;-81
2022/01/20 01:49:31;;;;;;;11.10;6.90;;;;;;;0.99;79.17;98059.30;106234;1280;22569;-82
2022/01/20 01:51:57;;;;;;;12.60;7.20;;;;;;;1.00;79.27;98059.19;106175;1277;23433;-81
2022/01/20 01:54:24;;;;;;;11.30;7.00;;;;;;;1.00;79.30;98057.45;106189;1277;137471;-81
2022/01/20 01:56:51;;;;;;;13.80;7.80;;;;;;;1.00;79.45;98047.91;106234;1277;23033;-83
2022/01/20 01:59:22;;;;;;;11.60;6.80;;;;;;;1.01;79.54;98049.00;106038;1277;139228;-82
2022/01/20 02:01:58;;;;;;;11.30;6.80;;;;;;;1.03;79.57;98037.35;106356;1277;22633;-82
2022/01/20 02:04:25;;;;;;;12.00;7.20;;;;;;;1.04;79.64;98032.37;106287;1277;24955;-81
2022/01/20 02:20:51;;;;;;;11.10;6.90;;;;;;;1.07;79.63;98007.34;106028;1277;22582;-80
2022/01/20 02:23:18;;;;;;;10.80;6.00;;;;;;;1.08;79.59;97999.59;105842;1280;137740;-80
2022/01/20 02:25:45;;;;;;;15.30;7.80;;;;;;;1.07;79.59;98003.55;106012;1280;22553;-80
2022/01/20 02:28:13;;;;;;;14.10;7.10;;;;;;;1.08;79.51;97987.92;105912;1277;23160;-80
2022/01/20 02:30:44;;;;;;;10.90;6.40;;;;;;;1.09;79.23;97986.11;105841;1277;137823;-81
2022/01/20 02:33:16;;;;;;;11.10;6.20;;;;;;;1.12;79.22;97997.61;105959;1277;24235;-82
2022/01/20 02:35:45;;;;;;;10.70;7.20;;;;;;;1.14;79.13;98000.13;105912;1277;137638;-81
2022/01/20 02:46:08;;;;;;;9.70;6.00;;;;;;;1.18;78.45;97980.93;105827;1277;22545;-80
2022/01/20 02:48:36;;;;;;;9.50;5.50;;;;;;;1.22;78.29;97981.09;105866;1277;137829;-80
2022/01/20 02:51:02;;;;;;;11.10;6.20;;;;;;;1.26;77.83;97981.36;106074;1277;24317;-80
2022/01/20 02:53:29;;;;;;;10.40;6.10;;;;;;;1.29;78.08;97985.61;105950;1277;137637;-81
2022/01/20 02:55:55;;;;;;;8.30;5.90;;;;;;;1.31;77.72;97982.45;105925;1277;24455;-80
2022/01/20 02:58:23;;;;;;;8.00;5.70;;;;;;;1.32;77.74;97979.36;106169;1277;22540;-80
2022/01/20 03:00:49;;;;;;;9.90;6.10;;;;;;;1.31;77.54;97970.08;105848;1277;137299;-80
2022/01/20 03:03:16;;;;;;;10.30;6.30;;;;;;;1.31;77.48;97965.27;105680;1278;22737;-80
2022/01/20 03:05:43;;;;;;;10.50;6.40;;;;;;;1.35;77.20;97966.59;105610;1277;137878;-80
2022/01/20 03:08:09;;;;;;;8.80;5.40;;;;;;;1.38;76.86;97968.17;105944;1277;25388;-79
2022/01/20 03:10:37;;;;;;;8.30;5.20;;;;;;;1.41;76.62;97963.15;105783;1277;23309;-79
2022/01/20 03:13:04;;;;;;;9.50;5.90;;;;;;;1.43;76.54;97959.73;105719;1277;137799;-80
2022/01/20 03:15:33;;;;;;;9.00;5.60;;;;;;;1.43;76.57;97956.59;105973;1277;24325;-79
2022/01/20 03:18:00;;;;;;;;;;;;;;;1.42;76.58;97961.09;105833;1278;137174;-79
2022/01/20 03:20:27;;;;;;;9.40;6.10;;;;;;;1.40;76.71;97954.68;106002;1277;22680;-79
2022/01/20 03:22:53;;;;;;;10.60;6.30;;;;;;;1.41;76.64;97950.77;106048;1277;22716;-78
2022/01/20 03:25:22;;;;;;;10.50;5.50;;;;;;;1.43;76.81;97952.35;105763;1277;137335;-78
2022/01/20 03:27:51;;;;;;;8.70;5.60;;;;;;;1.43;76.88;97948.84;105831;1277;24276;-79
2022/01/20 03:30:19;;;;;;;9.60;5.90;;;;;;;1.43;77.07;97952.72;105939;1277;137197;-79
2022/01/20 03:32:45;;;;;;;9.60;5.10;;;;;;;1.41;77.26;97952.02;105720;1277;24293;-79
2022/01/20 03:35:12;;;;;;;11.50;5.70;;;;;;;1.39;77.41;97942.51;105777;1277;137285;-79
2022/01/20 03:37:40;;;;;;;12.50;6.70;;;;;;;1.38;77.51;97944.40;106053;1278;25242;-79
2022/01/20 03:40:08;;;;;;;11.20;5.90;;;;;;;1.38;77.80;97939.70;105918;1278;24225;-78
2022/01/20 03:42:35;;;;;;;8.20;4.90;;;;;;;1.38;78.16;97938.35;106084;1277;138109;-79
2022/01/20 03:45:04;;;;;;;9.10;5.70;;;;;;;1.37;78.61;97933.13;106045;1277;22568;-78
2022/01/20 03:47:30;;;;;;;8.70;5.70;;;;;;;1.34;79.01;97929.55;105963;1277;137593;-79
2022/01/20 03:52:29;;;;;;;9.40;6.30;;;;;;;1.29;79.37;97923.15;105672;1277;22648;-79
2022/01/20 03:54:55;;;;;;;11.50;6.60;;;;;;;1.29;79.55;97918.37;105776;1277;137496;-79
2022/01/20 03:57:25;;;;;;;9.50;5.30;;;;;;;1.29;79.55;97923.69;106016;1280;24326;-79
2022/01/20 04:00:10;;;;;;;9.10;5.80;;;;;;;1.28;79.74;97922.93;105852;1277;137379;-79
2022/01/20 04:02:46;;;;;;;10.10;5.60;;;;;;;1.26;79.90;97917.15;106054;1277;22639;-78
2022/01/20 04:05:32;;;;;;;9.50;6.20;;;;;;;1.24;79.68;97905.05;105940;1280;138237;-78
2022/01/20 04:08:22;;;;;;;;;;;;;;;1.25;79.65;97904.52;106189;1277;22586;-79
2022/01/20 04:10:48;;;;;;;8.00;5.20;;;;;;;1.26;79.53;97905.10;105879;1277;24234;-80
2022/01/20 04:13:14;;;;;;;10.70;5.40;;;;;;;1.28;79.17;97900.24;105756;1280;137698;-78
2022/01/20 04:15:41;;;;;;;8.50;5.00;;;;;;;1.30;79.39;97902.47;106105;1277;22618;-78
2022/01/20 04:18:11;;;;;;;9.30;6.10;;;;;;;1.31;79.08;97891.83;105696;1280;137592;-78
2022/01/20 04:20:37;;;;;;;8.50;5.40;;;;;;;1.31;79.43;97885.93;105768;1280;24288;-78
2022/01/20 04:23:03;;;;;;;9.10;5.20;;;;;;;1.30;79.21;97889.73;106024;1280;137756;-78
2022/01/20 04:25:30;;;;;;;9.90;5.00;;;;;;;1.33;79.09;97883.13;105839;1277;22551;-78
2022/01/20 04:27:56;;;;;;;8.80;5.40;;;;;;;1.36;78.98;97885.50;105890;1277;22632;-78
2022/01/20 04:30:22;;;;;;;8.50;6.00;;;;;;;1.38;78.74;97888.57;105702;1277;137397;-79
2022/01/20 04:32:49;;;;;;;8.60;5.50;;;;;;;1.39;78.72;97879.32;106085;1277;22584;-79
2022/01/20 04:35:19;;;;;;;10.00;6.20;;;;;;;1.40;78.58;97880.14;105748;1277;137384;-78
2022/01/20 04:37:48;;;;;;;9.30;6.00;;;;;;;1.40;78.61;97875.77;105742;1277;22564;-78
2022/01/20 04:40:15;;;;;;;7.00;5.10;;;;;;;1.41;78.61;97873.52;105853;1277;22544;-78
2022/01/20 04:42:45;;;;;;;7.70;5.10;;;;;;;1.43;78.74;97873.44;105719;1280;137308;-78
2022/01/20 04:45:16;;;;;;;6.60;4.70;;;;;;;1.44;78.68;97873.48;105799;1277;22544;-78
2022/01/20 04:47:53;;;;;;;8.50;5.50;;;;;;;1.45;78.95;97873.06;105828;1277;137371;-77
2022/01/20 04:58:43;;;;;;;9.00;6.10;;;;;;;1.44;79.23;97854.29;105808;1277;24556;-79
2022/01/20 05:01:10;;;;;;;8.10;5.40;;;;;;;1.44;79.30;97857.21;105745;1277;137346;-77
2022/01/20 05:04:03;;;;;;;9.50;5.50;;;;;;;1.42;79.26;97845.12;105581;1281;25332;-78
2022/01/20 05:06:53;;;;;;;11.60;5.60;;;;;;;1.41;79.58;97844.41;105755;1277;138080;-78
2022/01/20 05:09:21;;;;;;;9.80;5.10;;;;;;;1.42;79.61;97833.77;105718;1277;22577;-80
2022/01/20 05:12:05;;;;;;;9.20;5.30;;;;;;;1.42;79.68;97837.60;105859;1277;137662;-80
2022/01/20 05:14:34;;;;;;;9.20;5.40;;;;;;;1.42;79.90;97841.04;106264;1277;25010;-82
2022/01/20 05:17:00;;;;;;;9.60;5.90;;;;;;;1.41;79.98;97846.35;106059;1278;23201;-79
2022/01/20 05:19:29;;;;;;;13.00;6.30;;;;;;;1.39;80.08;97850.02;105821;1277;137838;-81
2022/01/20 05:21:57;;;;;;;12.70;6.50;;;;;;;1.38;80.13;97854.56;105760;1278;22706;-76
2022/01/20 05:24:27;;;;;;;12.00;5.80;;;;;;;1.39;80.62;97853.60;105671;1281;137821;-79
2022/01/20 05:26:57;;;;;;;11.00;6.70;;;;;;;1.39;80.60;97848.36;105955;1281;26714;-77
2022/01/20 05:29:25;;;;;;;10.90;6.50;;;;;;;1.39;80.73;97843.41;105582;1277;138172;-79
2022/01/20 05:31:52;;;;;;;9.10;6.00;;;;;;;1.38;80.89;97845.89;106082;1277;22553;-78
2022/01/20 05:34:19;;;;;;;11.20;6.70;;;;;;;1.36;80.76;97839.48;105841;1277;24497;-77
2022/01/20 05:36:47;;;;;;;13.70;7.40;;;;;;;1.35;80.85;97834.93;105796;1277;138412;-77
2022/01/20 05:39:16;;;;;;;9.90;5.70;;;;;;;1.37;80.85;97833.00;105994;1277;22550;-79
2022/01/20 05:41:43;;;;;;;10.30;5.60;;;;;;;1.39;80.88;97828.77;105884;1278;137373;-77
2022/01/20 05:44:20;;;;;;;10.50;6.30;;;;;;;1.39;80.80;97822.65;106030;1277;25446;-77
2022/01/20 05:46:49;;;;;;;10.50;6.40;;;;;;;1.39;80.77;97827.65;106075;1281;22686;-77
2022/01/20 05:49:33;;;;;;;11.50;6.30;;;;;;;1.38;80.64;97824.89;105881;1277;137261;-77
2022/01/20 05:52:03;;;;;;;10.30;6.40;;;;;;;1.38;80.46;97828.34;105819;1278;25936;-79
2022/01/20 05:54:30;;;;;;;10.10;5.60;;;;;;;1.38;80.36;97826.21;105585;1278;138723;-77
2022/01/20 05:56:56;;;;;;;10.30;6.00;;;;;;;1.40;80.34;97819.15;105876;1277;22556;-77
2022/01/20 05:59:22;;;;;;;9.10;5.40;;;;;;;1.42;80.29;97818.50;105702;1277;137690;-77
2022/01/20 06:01:56;;;;;;;10.50;5.50;;;;;;;1.43;80.28;97820.73;105773;1278;25586;-77
2022/01/20 06:04:22;;;;;;;9.10;5.80;;;;;;;1.43;80.23;97816.02;105932;1277;24260;-77
2022/01/20 06:06:49;;;;;;;9.70;5.70;;;;;;;1.43;80.32;97818.25;105794;1281;137875;-78
2022/01/20 06:09:15;;;;;;;9.30;6.50;;;;;;;1.43;80.54;97817.96;105513;1281;25358;-77
2022/01/20 06:11:42;;;;;;;8.70;5.70;;;;;;;1.44;80.61;97819.66;105678;1281;138814;-77
2022/01/20 06:14:11;;;;;;;9.60;6.20;;;;;;;1.45;80.56;97816.15;105792;1280;24059;-76
2022/01/20 06:16:39;;;;;;;11.30;6.30;;;;;;;1.45;80.67;97821.52;106043;1277;22573;-76
2022/01/20 06:19:06;;;;;;;12.40;6.30;;;;;;;1.44;80.68;97824.81;105841;1277;137278;-76
2022/01/20 06:21:32;;;;;;;10.10;6.50;;;;;;;1.43;80.69;97827.70;105901;1278;22630;-76
2022/01/20 06:23:59;;;;;;;8.90;5.70;;;;;;;1.43;80.72;97825.88;105697;1278;137962;-76
2022/01/20 06:26:26;;;;;;;9.80;5.80;;;;;;;1.44;80.57;97820.15;105925;1277;22573;-77
2022/01/20 06:28:52;;;;;;;11.70;5.90;;;;;;;1.47;80.48;97816.69;105796;1278;22562;-77
2022/01/20 06:31:19;;;;;;;9.90;5.00;;;;;;;1.49;80.36;97818.48;105855;1277;137423;-76
2022/01/20 06:33:47;;;;;;;10.00;5.90;;;;;;;1.50;80.30;97818.52;105819;1281;22645;-77
2022/01/20 06:36:14;;;;;;;10.20;6.10;;;;;;;1.50;80.11;97813.77;106020;1277;137296;-77
2022/01/20 06:38:40;;;;;;;9.50;5.30;;;;;;;1.52;80.07;97807.17;105563;1281;24514;-76
2022/01/20 06:41:07;;;;;;;9.80;5.20;;;;;;;1.55;79.99;97802.18;105810;1277;25324;-77
2022/01/20 06:43:34;;;;;;;9.70;5.50;;;;;;;1.57;79.96;97802.35;105567;1278;137423;-76
2022/01/20 06:46:01;;;;;;;12.00;5.60;;;;;;;1.60;79.71;97798.77;105611;1281;24468;-77
2022/01/20 06:48:48;;;;;;;10.80;6.10;;;;;;;1.61;79.68;97786.84;105518;1279;137719;-76
2022/01/20 06:51:33;;;;;;;9.70;5.30;;;;;;;1.61;79.72;97781.77;106078;1280;23176;-77
2022/01/20 06:53:59;;;;;;;9.70;5.80;;;;;;;1.61;79.49;97777.54;106110;1281;137586;-76
2022/01/20 06:56:26;;;;;;;8.00;5.30;;;;;;;1.62;79.54;97779.68;105930;1281;22562;-76
2022/01/20 06:58:52;;;;;;;8.60;5.50;;;;;;;1.64;79.34;97784.11;105971;1281;24673;-77
2022/01/20 07:01:20;;;;;;;10.70;5.20;;;;;;;1.67;79.30;97785.80;105970;1281;137249;-76
2022/01/20 07:03:48;;;;;;;9.50;5.70;;;;;;;1.69;79.22;97795.52;106092;1278;22670;-76
2022/01/20 07:06:14;;;;;;;12.00;7.30;;;;;;;1.70;79.31;97798.61;105779;1278;137214;-77
2022/01/20 07:09:00;;;;;;;12.80;7.10;;;;;;;1.71;79.49;97799.48;105758;1277;22657;-77
2022/01/20 07:11:28;;;;;;;13.80;7.30;;;;;;;1.71;79.54;97798.73;105457;1278;138712;-77
2022/01/20 07:13:55;;;;;;;11.30;6.90;;;;;;;1.73;79.71;97790.98;105914;1277;25378;-76
2022/01/20 07:16:21;;;;;;;13.40;7.20;;;;;;;1.75;79.56;97799.70;106134;1277;25432;-76
2022/01/20 07:18:50;;;;;;;11.20;5.80;;;;;;;1.76;79.49;97803.33;105719;1281;137342;-77
2022/01/20 07:21:18;;;;;;;10.30;5.70;;;;;;;1.75;79.46;97807.86;106125;1277;25272;-77
2022/01/20 07:23:53;;;;;;;9.10;5.30;;;;;;;1.72;79.48;97802.17;105716;1281;138798;-77
2022/01/20 07:26:20;;;;;;;11.20;5.90;;;;;;;1.69;79.58;97796.34;106044;1281;25359;-76
2022/01/20 07:28:54;;;;;;;10.80;6.00;;;;;;;1.65;79.65;97797.48;105951;1278;24099;-76
2022/01/20 07:31:23;;;;;;;11.00;6.20;;;;;;;1.65;79.68;97798.32;105668;1281;138069;-76
2022/01/20 07:33:51;;;;;;;13.00;7.10;;;;;;;1.64;79.97;97787.45;105919;1278;22622;-76
2022/01/20 07:36:18;;;;;;;12.50;6.20;;;;;;;1.64;80.01;97789.69;105988;1277;137794;-76
2022/01/20 07:38:45;;;;;;;10.60;6.60;;;;;;;1.63;80.06;97791.04;106053;1278;22673;-76
2022/01/20 07:41:11;;;;;;;13.50;6.80;;;;;;;1.62;80.07;97797.48;106333;1277;23935;-76
2022/01/20 07:43:39;;;;;;;11.30;6.90;;;;;;;1.61;80.02;97802.10;106199;1277;137385;-79
2022/01/20 07:46:24;;;;;;;10.60;6.40;;;;;;;1.60;80.03;97816.73;105960;1280;24462;-76
2022/01/20 07:48:59;;;;;;;11.00;6.00;;;;;;;1.57;80.50;97832.02;105876;1281;139668;-76
2022/01/20 07:51:25;;;;;;;7.10;4.40;;;;;;;1.48;81.95;97849.55;105949;1281;25389;-76
2022/01/20 07:53:51;;;;;;;6.10;3.30;;;;;;;1.25;83.37;97840.76;105858;1278;138409;-76
2022/01/20 07:56:19;;;;;;;5.70;3.20;;;;;;;0.96;84.72;97831.31;106094;1277;25953;-77
2022/01/20 07:58:46;;;;;;;6.30;2.50;;;;;;;0.74;85.04;97832.70;106194;1278;25255;-76
2022/01/20 08:01:13;;;;;;;3.40;1.80;;;;;;;0.59;85.86;97836.77;106379;1277;137432;-75
2022/01/20 08:03:48;;;;;;;4.20;1.80;;;;;;;0.47;86.84;97836.23;106216;1278;25389;-76
2022/01/20 08:06:20;;;;;;;4.70;2.30;;;;;;;0.40;87.29;97848.96;105943;1278;138041;-76
2022/01/20 08:08:49;;;;;;;4.20;2.00;;;;;;;0.33;87.62;97858.35;106208;1277;22708;-76
2022/01/20 08:11:34;;;;;;;3.70;2.30;;;;;;;0.29;87.85;97871.04;106006;1277;138087;-78
2022/01/20 08:14:22;;;;;;;3.50;1.80;;;;;;;0.30;87.95;97867.14;106095;1277;22719;-76
2022/01/20 08:16:48;;;;;;;3.80;1.70;;;;;;;0.40;88.23;97852.70;106093;1277;26733;-75
2022/01/20 08:19:15;;;;;;;5.00;2.20;;;;;;;0.50;88.16;97855.17;105989;1277;137539;-75
2022/01/20 08:21:42;;;;;;;5.30;2.80;;;;;;;0.62;88.08;97851.56;106281;1277;22564;-74
2022/01/20 08:24:09;;;;;;;4.80;2.40;;;;;;;0.74;87.68;97854.63;106097;1278;138787;-78
2022/01/20 08:26:36;;;;;;;6.10;2.90;;;;;;;0.84;87.49;97856.24;106173;1277;24230;-74
2022/01/20 08:29:02;;;;;;;5.80;3.50;;;;;;;0.91;87.11;97859.05;106139;1277;22535;-76
2022/01/20 08:31:29;;;;;;;7.40;3.90;;;;;;;0.97;87.07;97857.75;105873;1278;137248;-76
2022/01/20 08:33:58;;;;;;;8.80;4.70;;;;;;;1.00;86.91;97847.55;106451;1278;24206;-77
2022/01/20 08:36:33;;;;;;;8.90;5.30;;;;;;;1.02;86.53;97833.70;106305;1277;138264;-76
2022/01/20 08:39:00;;;;;;;11.40;5.50;;;;;;;1.05;86.41;97826.41;106277;1277;22554;-77
2022/01/20 08:41:27;;;;;;;10.00;5.80;;;;;;;1.07;86.26;97826.79;105882;1277;138400;-77
2022/01/20 08:43:53;;;;;;;9.50;5.70;;;;;;;1.06;86.27;97825.52;105969;1277;23174;-77
2022/01/20 08:46:21;;;;;;;12.20;7.00;;;;;;;1.06;86.15;97826.83;105954;1277;24335;-76
2022/01/20 08:48:47;;;;;;;12.30;6.70;;;;;;;1.07;86.10;97834.34;106231;1277;138149;-76
2022/01/20 08:51:18;;;;;;;10.70;7.40;;;;;;;1.09;86.22;97833.89;106206;1277;22544;-76
2022/01/20 08:54:03;;;;;;;13.20;7.50;;;;;;;1.10;86.15;97835.10;106258;1278;138104;-76
2022/01/20 08:56:30;;;;;;;10.40;6.50;;;;;;;1.12;86.06;97828.29;106142;1277;22573;-76
2022/01/20 08:58:56;;;;;;;12.70;7.30;;;;;;;1.09;85.95;97831.70;106202;1277;22841;-76
2022/01/20 09:01:23;;;;;;;15.30;7.50;;;;;;;1.07;85.85;97836.94;106092;1277;138033;-76
2022/01/20 09:03:50;;;;;;;13.90;6.70;;;;;;;1.07;85.91;97837.14;106363;1277;22553;-76
2022/01/20 09:06:17;;;;;;;11.10;5.90;;;;;;;1.06;85.71;97823.86;105899;1280;138773;-77
2022/01/20 09:08:53;;;;;;;12.30;7.10;;;;;;;1.02;85.77;97820.88;105685;1278;24222;-76
2022/01/20 09:11:24;;;;;;;14.80;7.80;;;;;;;0.99;85.80;97818.02;105544;1277;137602;-76
2022/01/20 09:16:43;;;;;;;16.00;8.80;;;;;;;1.03;85.83;97804.51;106024;1277;22547;-76
2022/01/20 09:19:17;;;;;;;13.10;7.30;;;;;;;1.10;85.95;97801.40;106005;1277;137746;-76
2022/01/20 09:22:04;;;;;;;16.30;9.10;;;;;;;1.18;85.89;97805.88;105918;1277;22699;-76
2022/01/20 09:24:31;;;;;;;17.10;10.30;;;;;;;1.24;85.81;97802.27;105930;1280;137393;-76
2022/01/20 09:26:59;;;;;;;14.70;9.00;;;;;;;1.31;85.82;97790.44;106332;1277;22550;-76
2022/01/20 09:29:26;;;;;;;17.90;11.40;;;;;;;1.40;85.92;97769.91;105964;1278;138344;-76
2022/01/20 09:31:53;;;;;;;18.50;10.90;;;;;;;1.52;85.86;97766.39;105879;1280;22759;-77
2022/01/20 09:34:24;;;;;;;14.40;8.80;;;;;;;1.64;85.73;97770.15;106045;1277;25374;-78
2022/01/20 09:36:51;;;;;;;15.10;9.00;;;;;;;1.75;85.48;97762.48;106068;1277;137850;-76
2022/01/20 09:39:18;;;;;;;17.80;9.90;;;;;;;1.92;85.55;97749.27;105971;1280;22544;-76
2022/01/20 09:41:53;;;;;;;14.10;9.30;;;;;;;2.11;85.39;97745.70;105910;1280;138203;-76
2022/01/20 09:44:21;;;;;;;17.80;10.10;;;;;;;2.33;85.04;97741.74;106102;1277;25382;-77
2022/01/20 09:46:48;;;;;;;17.90;10.40;;;;;;;2.53;84.67;97737.03;105881;1277;24435;-79
2022/01/20 09:49:32;;;;;;;17.30;10.70;;;;;;;2.73;84.37;97742.49;105924;1277;137974;-79
2022/01/20 09:52:01;;;;;;;23.50;12.60;;;;;;;2.91;83.94;97726.01;106209;1277;22563;-78
2022/01/20 09:54:39;;;;;;;19.00;9.60;;;;;;;3.11;83.45;97726.48;105723;1277;138377;-77
2022/01/20 09:57:13;;;;;;;30.70;14.90;;;;;;;3.26;82.47;97723.70;106143;1277;25460;-77
2022/01/20 09:59:39;;;;;;;19.30;10.80;;;;;;;3.41;82.35;97717.99;105659;1277;138086;-77
2022/01/20 10:02:11;;;;;;;19.60;10.60;;;;;;;3.52;81.43;97715.88;105802;1280;22847;-77
2022/01/20 10:04:37;;;;;;;24.30;10.20;;;;;;;3.58;80.93;97715.50;105730;1278;23964;-77
2022/01/20 10:07:13;;;;;;;13.90;8.40;;;;;;;3.60;80.23;97711.48;106188;1277;137601;-77
2022/01/20 10:09:49;;;;;;;17.20;8.70;;;;;;;3.73;80.11;97704.20;105681;1277;25258;-77
2022/01/20 10:12:34;;;;;;;16.40;8.50;;;;;;;3.98;79.80;97698.10;105833;1277;138092;-77
2022/01/20 10:15:19;;;;;;;12.20;6.80;;;;;;;4.17;78.54;97683.13;105906;1277;22625;-77
2022/01/20 10:18:15;;;;;;;10.00;5.80;;;;;;;4.12;77.68;97678.58;105936;1277;137512;-77
2022/01/20 10:21:00;;;;;;;9.40;5.10;;;;;;;4.03;76.45;97668.06;106093;1277;25466;-77
2022/01/20 10:24:06;;;;;;;9.00;4.70;;;;;;;3.91;75.81;97650.58;105343;1277;137724;-79
2022/01/20 10:26:56;;;;;;;8.70;5.40;;;;;;;3.81;76.16;97643.28;105859;1277;22559;-78
2022/01/20 10:29:22;;;;;;;10.10;5.60;;;;;;;3.77;76.30;97644.48;105803;1280;137918;-78
2022/01/20 10:31:52;;;;;;;9.70;6.10;;;;;;;3.68;76.25;97648.63;106049;1280;22563;-78
2022/01/20 10:34:28;;;;;;;9.40;5.30;;;;;;;3.51;76.68;97648.18;106126;1277;22547;-78
2022/01/20 10:37:06;;;;;;;9.20;6.10;;;;;;;3.31;77.19;97652.31;106217;1277;137253;-79
2022/01/20 10:39:47;;;;;;;11.70;7.00;;;;;;;3.17;78.00;97645.50;106216;1277;24335;-77
2022/01/20 10:42:20;;;;;;;11.00;6.70;;;;;;;3.13;78.40;97633.11;106025;1277;138301;-77
2022/01/20 10:44:49;;;;;;;8.30;5.00;;;;;;;3.10;77.61;97626.18;105867;1278;24478;-77
2022/01/20 10:47:18;;;;;;;6.50;4.40;;;;;;;3.04;77.59;97618.40;105936;1277;138024;-78
2022/01/20 10:49:46;;;;;;;9.40;5.10;;;;;;;2.97;77.48;97608.27;106138;1278;22652;-78
2022/01/20 10:52:17;;;;;;;9.30;5.20;;;;;;;2.91;77.08;97604.50;106128;1277;24083;-78
2022/01/20 10:54:47;;;;;;;9.60;5.10;;;;;;;2.84;76.64;97590.67;106297;1277;137202;-78
2022/01/20 10:57:31;;;;;;;9.30;4.40;;;;;;;2.80;76.76;97587.74;106145;1277;22584;-78
2022/01/20 11:00:04;;;;;;;9.90;4.60;;;;;;;2.81;76.40;97574.91;106214;1277;138255;-78
2022/01/20 11:02:56;;;;;;;8.50;3.70;;;;;;;2.81;76.07;97562.61;106198;1277;22709;-78
2022/01/20 11:05:25;;;;;;;9.70;3.80;;;;;;;2.77;75.71;97557.80;105895;1277;137980;-78
2022/01/20 11:07:52;;;;;;;9.30;3.70;;;;;;;2.73;75.45;97554.77;105895;1278;24400;-79
2022/01/20 11:10:20;;;;;;;10.80;3.80;;;;;;;2.69;75.15;97541.28;106355;1277;22714;-78
2022/01/20 11:12:47;;;;;;;9.30;3.70;;;;;;;2.63;74.66;97549.20;106055;1277;137710;-78
2022/01/20 11:15:31;;;;;;;9.60;3.50;;;;;;;2.59;74.82;97552.67;106086;1277;23929;-78
2022/01/20 11:18:00;;;;;;;7.10;3.40;;;;;;;2.57;74.39;97540.81;106078;1277;137361;-78
2022/01/20 11:20:32;;;;;;;8.70;3.00;;;;;;;2.55;73.69;97540.54;105807;1277;24225;-78
2022/01/20 11:23:07;;;;;;;11.10;3.50;;;;;;;2.58;73.26;97543.11;106291;1277;22542;-79
2022/01/20 11:25:40;;;;;;;7.20;2.50;;;;;;;2.59;72.89;97553.66;105886;1277;137307;-78
2022/01/20 11:28:27;;;;;;;11.10;2.60;;;;;;;2.47;72.99;97569.98;106269;1277;25254;-78
2022/01/20 11:31:12;;;;;;;5.60;2.70;;;;;;;2.31;73.18;97592.26;106079;1277;138514;-78
2022/01/20 11:33:57;;;;;;;8.80;2.20;;;;;;;2.15;74.67;97603.77;106002;1277;22564;-79
2022/01/20 11:36:31;;;;;;;4.90;2.40;;;;;;;1.94;77.11;97638.53;105739;1278;137417;-79
2022/01/20 11:39:04;;;;;;;2.40;0.80;;;;;;;1.55;80.52;97674.78;106494;1277;22581;-79
2022/01/20 11:41:35;;;;;;;2.10;0.40;;;;;;;0.89;84.84;97708.43;106337;1275;138246;-79
2022/01/20 11:44:11;;;;;;;1.50;0.50;;;;;;;0.26;85.20;97689.34;106288;1277;23917;-80
2022/01/20 11:46:41;;;;;;;4.20;0.90;;;;;;;-0.16;85.97;97687.90;106613;1277;24440;-80
2022/01/20 11:49:10;;;;;;;3.00;0.90;;;;;;;-0.42;86.74;97691.41;106169;1277;137994;-81
2022/01/20 11:51:53;;;;;;;4.30;0.80;;;;;;;-0.58;86.64;97685.69;106297;1277;25368;-80
2022/01/20 11:54:32;;;;;;;2.00;0.60;;;;;;;-0.69;87.26;97677.62;106082;1277;137604;-81
2022/01/20 11:57:19;;;;;;;1.60;0.70;;;;;;;-0.76;86.93;97672.66;106395;1277;22613;-81
2022/01/20 11:59:53;;;;;;;4.00;1.30;;;;;;;-0.81;86.45;97678.74;105894;1277;138890;-79
2022/01/20 12:02:34;;;;;;;2.20;0.60;;;;;;;-0.81;86.50;97674.48;106185;1277;23414;-79
2022/01/20 12:05:16;;;;;;;1.60;0.70;;;;;;;-0.79;85.76;97680.45;106496;1277;24475;-81
2022/01/20 12:07:48;;;;;;;3.10;1.20;;;;;;;-0.79;84.64;97676.42;106095;1278;138179;-81
2022/01/20 12:10:17;;;;;;;5.40;1.30;;;;;;;-0.79;84.72;97679.72;105805;1277;22594;-79
2022/01/20 12:12:44;;;;;;;3.30;1.10;;;;;;;-0.73;84.92;97674.49;106243;1277;138057;-79
2022/01/20 12:15:21;;;;;;;5.50;1.30;;;;;;;-0.67;84.66;97667.44;106396;1277;24345;-80
2022/01/20 12:17:56;;;;;;;1.90;0.90;;;;;;;-0.63;84.39;97677.05;106173;1277;138053;-78
2022/01/20 12:20:23;;;;;;;2.90;1.10;;;;;;;-0.62;83.17;97692.45;105980;1277;24386;-78
2022/01/20 12:22:54;;;;;;;3.60;1.20;;;;;;;-0.60;83.66;97688.68;106274;1277;24234;-76
2022/01/20 12:25:27;;;;;;;4.40;1.40;;;;;;;-0.53;83.77;97693.34;105999;1277;137891;-78
2022/01/20 12:28:10;;;;;;;4.10;2.10;;;;;;;-0.49;83.39;97695.48;106221;1277;23977;-78
2022/01/20 12:30:47;;;;;;;5.10;2.30;;;;;;;-0.47;83.42;97691.66;105853;1278;137926;-78
2022/01/20 12:33:16;;;;;;;3.70;1.50;;;;;;;-0.46;82.81;97692.61;106277;1277;22552;-79
2022/01/20 12:35:44;;;;;;;;;;;;;;;-0.49;81.60;97691.36;105875;1278;138206;-79
2022/01/20 12:38:30;;;;;;;5.40;1.50;;;;;;;-0.53;82.03;97692.73;105891;1277;22834;-78
2022/01/20 12:41:12;;;;;;;4.70;1.30;;;;;;;-0.57;81.64;97705.16;105813;1277;24380;-78
2022/01/20 12:43:41;;;;;;;4.70;1.80;;;;;;;-0.62;82.04;97689.27;106084;1277;137409;-78
2022/01/20 12:46:19;;;;;;;3.30;1.60;;;;;;;-0.64;82.44;97696.27;106080;1277;22783;-78
2022/01/20 12:48:55;;;;;;;8.20;2.20;;;;;;;-0.62;82.15;97700.53;106075;1277;138147;-78
2022/01/20 12:51:42;;;;;;;3.70;1.60;;;;;;;-0.63;81.86;97695.93;107152;1277;22566;-79
2022/01/20 12:54:17;;;;;;;4.90;1.90;;;;;;;-0.65;81.40;97712.25;106556;1277;137785;-79
2022/01/20 12:56:49;;;;;;;7.60;2.10;;;;;;;-0.68;81.17;97723.87;106556;1277;24380;-79